sensor_id;sensor_type;location;lat;lon;timestamp;pressure;altitude;pressure_sealevel;temperature;humidity
36630;BME280;36256;42.154;23.002;2023-04-22T00:00:44;96823.56;;;11.27;83.79
36630;BME280;36256;42.154;23.002;2023-04-22T00:03:10;96824.19;;;11.22;84.68
36630;BME280;36256;42.154;23.002;2023-04-22T00:05:37;96831.69;;;11.25;85.79
36630;BME280;36256;42.154;23.002;2023-04-22T00:08:04;96835.13;;;11.20;86.59
36630;BME280;36256;42.154;23.002;2023-04-22T00:10:30;96838.88;;;11.17;86.37
36630;BME280;36256;42.154;23.002;2023-04-22T00:12:57;96847.00;;;11.15;87.67
36630;BME280;36256;42.154;23.002;2023-04-22T00:15:23;96848.56;;;11.07;86.14
36630;BME280;36256;42.154;23.002;2023-04-22T00:17:50;96850.09;;;10.98;84.12
36630;BME280;36256;42.154;23.002;2023-04-22T00:20:20;96846.22;;;10.87;83.85
36630;BME280;36256;42.154;23.002;2023-04-22T00:22:47;96848.38;;;10.83;83.15
36630;BME280;36256;42.154;23.002;2023-04-22T00:25:13;96845.41;;;10.77;83.39
36630;BME280;36256;42.154;23.002;2023-04-22T00:27:40;96840.72;;;10.65;83.59
36630;BME280;36256;42.154;23.002;2023-04-22T00:30:06;96848.81;;;10.63;84.10
36630;BME280;36256;42.154;23.002;2023-04-22T00:32:33;96844.91;;;10.61;84.36
36630;BME280;36256;42.154;23.002;2023-04-22T00:35:00;96854.09;;;10.52;86.64
36630;BME280;36256;42.154;23.002;2023-04-22T00:37:26;96850.00;;;10.35;90.00
36630;BME280;36256;42.154;23.002;2023-04-22T00:39:53;96853.72;;;10.23;90.32
36630;BME280;36256;42.154;23.002;2023-04-22T00:42:20;96851.06;;;10.19;89.44
36630;BME280;36256;42.154;23.002;2023-04-22T00:44:46;96852.00;;;10.25;89.45
36630;BME280;36256;42.154;23.002;2023-04-22T00:47:13;96850.59;;;10.21;89.67
36630;BME280;36256;42.154;23.002;2023-04-22T00:49:41;96851.06;;;10.19;90.88
36630;BME280;36256;42.154;23.002;2023-04-22T00:52:07;96858.06;;;10.15;89.79
36630;BME280;36256;42.154;23.002;2023-04-22T00:54:34;96857.00;;;10.21;87.72
36630;BME280;36256;42.154;23.002;2023-04-22T00:57:01;96860.56;;;10.22;88.92
36630;BME280;36256;42.154;23.002;2023-04-22T00:59:29;96865.81;;;10.11;89.71
36630;BME280;36256;42.154;23.002;2023-04-22T01:01:55;96866.38;;;10.06;92.99
36630;BME280;36256;42.154;23.002;2023-04-22T01:04:22;96868.63;;;10.11;93.32
36630;BME280;36256;42.154;23.002;2023-04-22T01:06:49;96869.28;;;10.15;92.35
36630;BME280;36256;42.154;23.002;2023-04-22T01:09:17;96867.25;;;10.15;90.54
36630;BME280;36256;42.154;23.002;2023-04-22T01:11:44;96867.69;;;10.14;88.50
36630;BME280;36256;42.154;23.002;2023-04-22T01:14:11;96863.66;;;10.15;87.51
36630;BME280;36256;42.154;23.002;2023-04-22T01:16:38;96866.94;;;10.13;87.26
36630;BME280;36256;42.154;23.002;2023-04-22T01:19:06;96864.69;;;10.08;87.99
36630;BME280;36256;42.154;23.002;2023-04-22T01:21:34;96867.97;;;10.07;88.42
36630;BME280;36256;42.154;23.002;2023-04-22T01:24:00;96864.53;;;10.03;88.93
36630;BME280;36256;42.154;23.002;2023-04-22T01:26:27;96867.59;;;9.96;89.66
36630;BME280;36256;42.154;23.002;2023-04-22T01:28:54;96864.16;;;9.92;92.33
36630;BME280;36256;42.154;23.002;2023-04-22T01:31:21;96859.75;;;9.82;91.23
36630;BME280;36256;42.154;23.002;2023-04-22T01:33:47;96856.00;;;9.85;90.06
36630;BME280;36256;42.154;23.002;2023-04-22T01:36:15;96863.47;;;9.79;90.32
36630;BME280;36256;42.154;23.002;2023-04-22T01:38:42;96865.31;;;9.73;93.47
36630;BME280;36256;42.154;23.002;2023-04-22T01:41:08;96862.75;;;9.66;93.29
36630;BME280;36256;42.154;23.002;2023-04-22T01:43:35;96862.06;;;9.52;94.17
36630;BME280;36256;42.154;23.002;2023-04-22T01:46:01;96871.97;;;9.44;94.76
36630;BME280;36256;42.154;23.002;2023-04-22T01:48:29;96862.75;;;9.35;95.72
36630;BME280;36256;42.154;23.002;2023-04-22T01:50:56;96862.22;;;9.27;94.89
36630;BME280;36256;42.154;23.002;2023-04-22T01:53:22;96867.16;;;9.23;93.67
36630;BME280;36256;42.154;23.002;2023-04-22T01:55:49;96874.66;;;9.26;93.46
36630;BME280;36256;42.154;23.002;2023-04-22T01:58:16;96860.78;;;9.23;93.75
36630;BME280;36256;42.154;23.002;2023-04-22T02:00:42;96868.66;;;9.15;93.77
36630;BME280;36256;42.154;23.002;2023-04-22T02:03:09;96873.94;;;9.13;93.61
36630;BME280;36256;42.154;23.002;2023-04-22T02:05:36;96872.63;;;9.05;94.12
36630;BME280;36256;42.154;23.002;2023-04-22T02:08:03;96874.78;;;9.01;95.38
36630;BME280;36256;42.154;23.002;2023-04-22T02:10:30;96871.06;;;9.04;95.51
36630;BME280;36256;42.154;23.002;2023-04-22T02:12:56;96874.81;;;9.10;94.81
36630;BME280;36256;42.154;23.002;2023-04-22T02:15:23;96874.78;;;9.01;96.09
36630;BME280;36256;42.154;23.002;2023-04-22T02:17:49;96868.25;;;9.04;96.53
36630;BME280;36256;42.154;23.002;2023-04-22T02:20:16;96875.09;;;9.03;95.95
36630;BME280;36256;42.154;23.002;2023-04-22T02:22:42;96872.75;;;9.02;97.88
36630;BME280;36256;42.154;23.002;2023-04-22T02:25:09;96878.47;;;8.98;98.19
36630;BME280;36256;42.154;23.002;2023-04-22T02:27:39;96872.09;;;8.98;96.75
36630;BME280;36256;42.154;23.002;2023-04-22T02:30:05;96875.34;;;8.96;96.63
36630;BME280;36256;42.154;23.002;2023-04-22T02:32:32;96874.44;;;8.99;96.47
36630;BME280;36256;42.154;23.002;2023-04-22T02:35:01;96880.16;;;8.96;97.89
36630;BME280;36256;42.154;23.002;2023-04-22T02:37:28;96881.72;;;8.97;98.49
36630;BME280;36256;42.154;23.002;2023-04-22T02:39:54;96883.09;;;8.92;98.94
36630;BME280;36256;42.154;23.002;2023-04-22T02:42:21;96881.31;;;8.86;98.39
36630;BME280;36256;42.154;23.002;2023-04-22T02:44:47;96884.91;;;8.86;97.87
36630;BME280;36256;42.154;23.002;2023-04-22T02:47:13;96887.81;;;8.83;98.39
36630;BME280;36256;42.154;23.002;2023-04-22T02:49:40;96886.94;;;8.73;99.61
36630;BME280;36256;42.154;23.002;2023-04-22T02:52:07;96886.28;;;8.69;99.52
36630;BME280;36256;42.154;23.002;2023-04-22T02:54:33;96896.25;;;8.70;98.90
36630;BME280;36256;42.154;23.002;2023-04-22T02:57:00;96887.19;;;8.66;98.86
36630;BME280;36256;42.154;23.002;2023-04-22T02:59:26;96892.22;;;8.71;97.76
36630;BME280;36256;42.154;23.002;2023-04-22T03:01:53;96891.31;;;8.74;98.70
36630;BME280;36256;42.154;23.002;2023-04-22T03:04:19;96894.44;;;8.76;99.21
36630;BME280;36256;42.154;23.002;2023-04-22T03:06:47;96903.81;;;8.82;98.96
36630;BME280;36256;42.154;23.002;2023-04-22T03:09:14;96885.69;;;8.87;98.80
36630;BME280;36256;42.154;23.002;2023-04-22T03:11:40;96897.31;;;8.85;100.00
36630;BME280;36256;42.154;23.002;2023-04-22T03:14:07;96894.31;;;8.80;100.00
36630;BME280;36256;42.154;23.002;2023-04-22T03:16:33;96905.69;;;8.85;99.79
36630;BME280;36256;42.154;23.002;2023-04-22T03:18:59;96895.06;;;8.93;98.84
36630;BME280;36256;42.154;23.002;2023-04-22T03:21:26;96904.56;;;8.95;97.61
36630;BME280;36256;42.154;23.002;2023-04-22T03:23:53;96903.97;;;9.00;97.22
36630;BME280;36256;42.154;23.002;2023-04-22T03:26:20;96898.13;;;9.07;97.23
36630;BME280;36256;42.154;23.002;2023-04-22T03:28:47;96901.13;;;9.13;97.60
36630;BME280;36256;42.154;23.002;2023-04-22T03:31:13;96903.41;;;9.05;98.22
36630;BME280;36256;42.154;23.002;2023-04-22T03:33:39;96910.00;;;9.11;98.06
36630;BME280;36256;42.154;23.002;2023-04-22T03:36:06;96906.34;;;9.02;98.30
36630;BME280;36256;42.154;23.002;2023-04-22T03:38:33;96913.28;;;8.97;98.00
36630;BME280;36256;42.154;23.002;2023-04-22T03:40:59;96909.56;;;9.00;98.08
36630;BME280;36256;42.154;23.002;2023-04-22T03:43:26;96915.06;;;9.04;98.13
36630;BME280;36256;42.154;23.002;2023-04-22T03:45:52;96905.75;;;9.07;98.13
36630;BME280;36256;42.154;23.002;2023-04-22T03:48:19;96914.69;;;9.14;97.46
36630;BME280;36256;42.154;23.002;2023-04-22T03:50:45;96920.94;;;9.18;97.89
36630;BME280;36256;42.154;23.002;2023-04-22T03:53:11;96923.41;;;9.16;97.79
36630;BME280;36256;42.154;23.002;2023-04-22T03:55:38;96919.69;;;9.19;99.86
36630;BME280;36256;42.154;23.002;2023-04-22T03:58:04;96923.16;;;9.23;98.95
36630;BME280;36256;42.154;23.002;2023-04-22T04:00:31;96934.66;;;9.25;98.11
36630;BME280;36256;42.154;23.002;2023-04-22T04:02:58;96935.59;;;9.22;99.24
36630;BME280;36256;42.154;23.002;2023-04-22T04:05:24;96939.94;;;9.23;99.80
36630;BME280;36256;42.154;23.002;2023-04-22T04:07:51;96941.53;;;9.24;99.67
36630;BME280;36256;42.154;23.002;2023-04-22T04:10:17;96940.28;;;9.25;100.00
36630;BME280;36256;42.154;23.002;2023-04-22T04:12:44;96953.50;;;9.25;100.00
36630;BME280;36256;42.154;23.002;2023-04-22T04:15:10;96947.13;;;9.24;100.00
36630;BME280;36256;42.154;23.002;2023-04-22T04:17:37;96953.88;;;9.14;100.00
36630;BME280;36256;42.154;23.002;2023-04-22T04:20:03;96950.72;;;9.12;100.00
36630;BME280;36256;42.154;23.002;2023-04-22T04:22:30;96959.72;;;9.07;100.00
36630;BME280;36256;42.154;23.002;2023-04-22T04:24:57;96963.16;;;9.11;100.00
36630;BME280;36256;42.154;23.002;2023-04-22T04:27:23;96959.72;;;9.07;100.00
36630;BME280;36256;42.154;23.002;2023-04-22T04:29:50;96963.41;;;9.04;100.00
36630;BME280;36256;42.154;23.002;2023-04-22T04:32:17;96961.03;;;9.15;99.02
36630;BME280;36256;42.154;23.002;2023-04-22T04:34:44;96970.41;;;9.21;97.81
36630;BME280;36256;42.154;23.002;2023-04-22T04:37:10;96967.78;;;9.05;100.00
36630;BME280;36256;42.154;23.002;2023-04-22T04:39:37;96969.44;;;9.15;100.00
36630;BME280;36256;42.154;23.002;2023-04-22T04:42:04;96961.13;;;9.24;100.00
36630;BME280;36256;42.154;23.002;2023-04-22T04:44:31;96957.63;;;9.33;100.00
36630;BME280;36256;42.154;23.002;2023-04-22T04:46:58;96960.69;;;9.47;99.81
36630;BME280;36256;42.154;23.002;2023-04-22T04:49:25;96966.56;;;9.62;98.55
36630;BME280;36256;42.154;23.002;2023-04-22T04:51:52;96965.19;;;9.67;98.19
36630;BME280;36256;42.154;23.002;2023-04-22T04:54:18;96973.84;;;9.81;97.20
36630;BME280;36256;42.154;23.002;2023-04-22T04:56:44;96972.03;;;9.87;96.51
36630;BME280;36256;42.154;23.002;2023-04-22T04:59:11;96978.75;;;9.90;95.87
36630;BME280;36256;42.154;23.002;2023-04-22T05:01:38;96979.38;;;9.94;97.02
36630;BME280;36256;42.154;23.002;2023-04-22T05:04:04;96975.06;;;10.02;97.89
36630;BME280;36256;42.154;23.002;2023-04-22T05:06:31;96981.78;;;10.04;96.61
36630;BME280;36256;42.154;23.002;2023-04-22T05:08:58;96984.41;;;9.99;96.51
36630;BME280;36256;42.154;23.002;2023-04-22T05:11:25;96979.44;;;10.03;96.13
36630;BME280;36256;42.154;23.002;2023-04-22T05:13:52;96977.59;;;10.09;95.07
36630;BME280;36256;42.154;23.002;2023-04-22T05:16:18;96979.81;;;10.14;94.35
36630;BME280;36256;42.154;23.002;2023-04-22T05:18:45;96980.47;;;10.18;94.31
36630;BME280;36256;42.154;23.002;2023-04-22T05:21:11;96978.94;;;10.17;94.53
36630;BME280;36256;42.154;23.002;2023-04-22T05:23:37;96973.31;;;10.17;94.24
36630;BME280;36256;42.154;23.002;2023-04-22T05:26:04;96980.81;;;10.20;93.36
36630;BME280;36256;42.154;23.002;2023-04-22T05:28:31;96972.69;;;10.13;94.37
36630;BME280;36256;42.154;23.002;2023-04-22T05:30:57;96973.53;;;10.10;95.18
36630;BME280;36256;42.154;23.002;2023-04-22T05:33:24;96967.13;;;10.22;94.05
36630;BME280;36256;42.154;23.002;2023-04-22T05:35:50;96972.50;;;10.38;92.82
36630;BME280;36256;42.154;23.002;2023-04-22T05:38:17;96982.22;;;10.55;92.89
36630;BME280;36256;42.154;23.002;2023-04-22T05:40:44;96978.91;;;10.87;90.90
36630;BME280;36256;42.154;23.002;2023-04-22T05:43:10;96986.13;;;11.16;90.25
36630;BME280;36256;42.154;23.002;2023-04-22T05:45:37;96980.06;;;11.26;88.60
36630;BME280;36256;42.154;23.002;2023-04-22T05:48:03;96977.41;;;11.41;87.61
36630;BME280;36256;42.154;23.002;2023-04-22T05:50:30;96978.06;;;11.63;88.01
36630;BME280;36256;42.154;23.002;2023-04-22T05:52:56;96973.69;;;11.98;85.83
36630;BME280;36256;42.154;23.002;2023-04-22T05:55:23;96972.41;;;12.08;82.88
36630;BME280;36256;42.154;23.002;2023-04-22T05:57:49;96974.22;;;12.38;83.19
36630;BME280;36256;42.154;23.002;2023-04-22T06:00:16;96977.19;;;12.77;79.85
36630;BME280;36256;42.154;23.002;2023-04-22T06:02:43;96973.63;;;13.00;78.82
36630;BME280;36256;42.154;23.002;2023-04-22T06:05:10;96969.66;;;13.15;77.64
36630;BME280;36256;42.154;23.002;2023-04-22T06:07:37;96969.53;;;13.10;76.05
36630;BME280;36256;42.154;23.002;2023-04-22T06:10:03;96975.84;;;13.05;76.42
36630;BME280;36256;42.154;23.002;2023-04-22T06:12:32;96969.91;;;12.94;75.93
36630;BME280;36256;42.154;23.002;2023-04-22T06:14:58;96982.31;;;12.87;75.46
36630;BME280;36256;42.154;23.002;2023-04-22T06:17:25;96972.44;;;12.92;74.37
36630;BME280;36256;42.154;23.002;2023-04-22T06:19:51;96977.81;;;13.13;74.16
36630;BME280;36256;42.154;23.002;2023-04-22T06:22:20;96975.19;;;13.72;72.52
36630;BME280;36256;42.154;23.002;2023-04-22T06:24:46;96963.09;;;14.53;68.89
36630;BME280;36256;42.154;23.002;2023-04-22T06:27:13;96959.47;;;14.82;66.27
36630;BME280;36256;42.154;23.002;2023-04-22T06:29:40;96954.31;;;15.35;62.40
36630;BME280;36256;42.154;23.002;2023-04-22T06:32:06;96948.47;;;15.59;60.58
36630;BME280;36256;42.154;23.002;2023-04-22T06:34:33;96950.91;;;15.92;60.28
36630;BME280;36256;42.154;23.002;2023-04-22T06:36:59;96943.16;;;15.66;59.71
36630;BME280;36256;42.154;23.002;2023-04-22T06:39:26;96944.56;;;15.77;60.37
36630;BME280;36256;42.154;23.002;2023-04-22T06:41:52;96944.28;;;15.75;59.07
36630;BME280;36256;42.154;23.002;2023-04-22T06:44:19;96942.09;;;16.10;58.01
36630;BME280;36256;42.154;23.002;2023-04-22T06:46:45;96935.16;;;16.11;57.53
36630;BME280;36256;42.154;23.002;2023-04-22T06:49:12;96934.25;;;16.51;56.80
36630;BME280;36256;42.154;23.002;2023-04-22T06:51:38;96941.56;;;16.37;60.81
36630;BME280;36256;42.154;23.002;2023-04-22T06:54:05;96943.97;;;16.75;59.18
36630;BME280;36256;42.154;23.002;2023-04-22T06:56:32;96939.81;;;17.07;57.20
36630;BME280;36256;42.154;23.002;2023-04-22T06:58:58;96922.81;;;17.50;56.73
36630;BME280;36256;42.154;23.002;2023-04-22T07:01:25;96921.19;;;17.38;55.67
36630;BME280;36256;42.154;23.002;2023-04-22T07:03:51;96930.44;;;17.33;57.51
36630;BME280;36256;42.154;23.002;2023-04-22T07:06:18;96930.50;;;17.44;57.69
36630;BME280;36256;42.154;23.002;2023-04-22T07:08:44;96924.03;;;17.49;57.94
36630;BME280;36256;42.154;23.002;2023-04-22T07:11:10;96925.53;;;17.92;54.01
36630;BME280;36256;42.154;23.002;2023-04-22T07:13:39;96922.13;;;17.71;55.07
36630;BME280;36256;42.154;23.002;2023-04-22T07:16:06;96923.97;;;17.85;54.26
36630;BME280;36256;42.154;23.002;2023-04-22T07:18:33;96919.69;;;18.29;52.36
36630;BME280;36256;42.154;23.002;2023-04-22T07:21:01;96920.75;;;18.48;53.43
36630;BME280;36256;42.154;23.002;2023-04-22T07:23:27;96922.00;;;18.41;52.05
36630;BME280;36256;42.154;23.002;2023-04-22T07:25:54;96913.69;;;18.10;52.80
36630;BME280;36256;42.154;23.002;2023-04-22T07:28:20;96919.38;;;17.99;52.70
36630;BME280;36256;42.154;23.002;2023-04-22T07:30:47;96911.34;;;17.97;53.88
36630;BME280;36256;42.154;23.002;2023-04-22T07:33:13;96918.31;;;17.96;52.93
36630;BME280;36256;42.154;23.002;2023-04-22T07:46:39;96922.47;;;19.23;50.20
36630;BME280;36256;42.154;23.002;2023-04-22T07:49:06;96913.41;;;19.30;49.75
36630;BME280;36256;42.154;23.002;2023-04-22T07:51:33;96908.34;;;18.78;49.55
36630;BME280;36256;42.154;23.002;2023-04-22T07:53:59;96902.91;;;18.53;51.11
36630;BME280;36256;42.154;23.002;2023-04-22T07:56:26;96908.59;;;18.80;50.96
36630;BME280;36256;42.154;23.002;2023-04-22T07:58:53;96899.56;;;18.76;50.40
36630;BME280;36256;42.154;23.002;2023-04-22T08:01:19;96905.69;;;19.08;53.34
36630;BME280;36256;42.154;23.002;2023-04-22T08:03:46;96903.97;;;19.68;51.05
36630;BME280;36256;42.154;23.002;2023-04-22T08:06:13;96899.28;;;20.22;51.02
36630;BME280;36256;42.154;23.002;2023-04-22T08:08:39;96891.13;;;20.73;49.38
36630;BME280;36256;42.154;23.002;2023-04-22T08:11:06;96882.81;;;20.75;46.80
36630;BME280;36256;42.154;23.002;2023-04-22T08:13:33;96888.75;;;20.77;45.76
36630;BME280;36256;42.154;23.002;2023-04-22T08:16:00;96868.94;;;20.30;46.46
36630;BME280;36256;42.154;23.002;2023-04-22T08:18:29;96863.41;;;20.38;45.62
36630;BME280;36256;42.154;23.002;2023-04-22T08:20:56;96848.91;;;20.42;45.47
36630;BME280;36256;42.154;23.002;2023-04-22T08:23:23;96858.63;;;20.81;46.46
36630;BME280;36256;42.154;23.002;2023-04-22T08:25:50;96862.97;;;20.88;44.83
36630;BME280;36256;42.154;23.002;2023-04-22T08:28:17;96850.84;;;20.82;45.98
36630;BME280;36256;42.154;23.002;2023-04-22T08:30:43;96850.63;;;21.04;45.68
36630;BME280;36256;42.154;23.002;2023-04-22T08:33:10;96847.56;;;21.26;42.67
36630;BME280;36256;42.154;23.002;2023-04-22T08:35:37;96853.22;;;20.78;44.88
36630;BME280;36256;42.154;23.002;2023-04-22T08:38:04;96844.94;;;20.74;42.66
36630;BME280;36256;42.154;23.002;2023-04-22T08:40:30;96843.66;;;21.05;45.18
36630;BME280;36256;42.154;23.002;2023-04-22T08:42:57;96845.56;;;20.91;42.86
36630;BME280;36256;42.154;23.002;2023-04-22T08:45:23;96823.22;;;20.95;40.20
36630;BME280;36256;42.154;23.002;2023-04-22T08:47:51;96858.47;;;20.98;40.62
36630;BME280;36256;42.154;23.002;2023-04-22T08:50:20;96861.16;;;20.90;44.92
36630;BME280;36256;42.154;23.002;2023-04-22T08:52:47;96866.47;;;21.05;43.28
36630;BME280;36256;42.154;23.002;2023-04-22T08:55:14;96862.47;;;21.14;44.53
36630;BME280;36256;42.154;23.002;2023-04-22T08:57:41;96868.34;;;21.21;45.01
36630;BME280;36256;42.154;23.002;2023-04-22T09:00:08;96864.47;;;21.43;44.99
36630;BME280;36256;42.154;23.002;2023-04-22T09:02:35;96865.94;;;21.49;44.38
36630;BME280;36256;42.154;23.002;2023-04-22T09:05:04;96863.00;;;21.12;45.52
36630;BME280;36256;42.154;23.002;2023-04-22T09:07:31;96847.28;;;21.00;43.28
36630;BME280;36256;42.154;23.002;2023-04-22T09:09:58;96841.69;;;20.89;41.71
36630;BME280;36256;42.154;23.002;2023-04-22T09:12:25;96839.78;;;20.73;42.44
36630;BME280;36256;42.154;23.002;2023-04-22T09:14:51;96835.34;;;20.77;41.14
36630;BME280;36256;42.154;23.002;2023-04-22T09:17:33;96834.00;;;20.84;43.26
36630;BME280;36256;42.154;23.002;2023-04-22T09:20:02;96831.53;;;20.93;48.57
36630;BME280;36256;42.154;23.002;2023-04-22T09:22:43;96832.75;;;21.28;43.01
36630;BME280;36256;42.154;23.002;2023-04-22T09:25:19;96842.47;;;21.56;41.96
36630;BME280;36256;42.154;23.002;2023-04-22T09:27:51;96833.00;;;21.05;42.34
36630;BME280;36256;42.154;23.002;2023-04-22T09:30:31;96821.22;;;20.90;38.35
36630;BME280;36256;42.154;23.002;2023-04-22T09:33:03;96823.44;;;21.03;44.25
36630;BME280;36256;42.154;23.002;2023-04-22T09:35:35;96809.13;;;21.27;37.83
36630;BME280;36256;42.154;23.002;2023-04-22T09:38:08;96806.47;;;21.10;40.36
36630;BME280;36256;42.154;23.002;2023-04-22T09:40:36;96808.78;;;21.12;39.25
36630;BME280;36256;42.154;23.002;2023-04-22T09:45:36;96794.03;;;21.32;38.89
36630;BME280;36256;42.154;23.002;2023-04-22T09:48:07;96794.34;;;21.66;37.81
36630;BME280;36256;42.154;23.002;2023-04-22T09:50:39;96788.94;;;21.81;41.38
36630;BME280;36256;42.154;23.002;2023-04-22T09:53:08;96776.28;;;21.76;39.88
36630;BME280;36256;42.154;23.002;2023-04-22T09:55:46;96779.47;;;21.92;40.05
36630;BME280;36256;42.154;23.002;2023-04-22T09:58:18;96774.44;;;21.98;38.91
36630;BME280;36256;42.154;23.002;2023-04-22T10:00:50;96768.88;;;21.68;40.89
36630;BME280;36256;42.154;23.002;2023-04-22T10:03:17;96746.34;;;21.27;38.19
36630;BME280;36256;42.154;23.002;2023-04-22T10:05:44;96752.06;;;21.64;39.29
36630;BME280;36256;42.154;23.002;2023-04-22T10:08:13;96762.38;;;22.05;39.11
36630;BME280;36256;42.154;23.002;2023-04-22T10:10:41;96753.06;;;21.85;35.08
36630;BME280;36256;42.154;23.002;2023-04-22T10:13:07;96748.53;;;21.58;33.78
36630;BME280;36256;42.154;23.002;2023-04-22T10:15:40;96741.97;;;21.45;34.46
36630;BME280;36256;42.154;23.002;2023-04-22T10:18:11;96715.81;;;21.59;33.16
36630;BME280;36256;42.154;23.002;2023-04-22T10:20:40;96708.56;;;21.40;32.34
36630;BME280;36256;42.154;23.002;2023-04-22T10:23:17;96728.06;;;21.73;36.87
36630;BME280;36256;42.154;23.002;2023-04-22T10:25:48;96716.41;;;21.90;38.20
36630;BME280;36256;42.154;23.002;2023-04-22T10:28:17;96716.47;;;22.16;32.78
36630;BME280;36256;42.154;23.002;2023-04-22T10:30:45;96724.06;;;22.13;39.57
36630;BME280;36256;42.154;23.002;2023-04-22T10:41:33;96701.38;;;22.73;37.02
36630;BME280;36256;42.154;23.002;2023-04-22T10:44:05;96704.13;;;22.92;36.23
36630;BME280;36256;42.154;23.002;2023-04-22T10:51:39;96706.31;;;23.25;38.35
36630;BME280;36256;42.154;23.002;2023-04-22T10:54:07;96702.00;;;23.18;34.26
36630;BME280;36256;42.154;23.002;2023-04-22T10:57:01;96706.66;;;22.95;34.45
36630;BME280;36256;42.154;23.002;2023-04-22T10:59:30;96734.16;;;22.85;35.66
36630;BME280;36256;42.154;23.002;2023-04-22T11:02:00;96722.75;;;22.72;33.69
36630;BME280;36256;42.154;23.002;2023-04-22T11:04:27;96724.28;;;22.73;38.80
36630;BME280;36256;42.154;23.002;2023-04-22T11:09:44;96730.66;;;22.92;38.00
36630;BME280;36256;42.154;23.002;2023-04-22T11:15:21;96730.66;;;22.92;37.92
36630;BME280;36256;42.154;23.002;2023-04-22T11:17:52;96730.19;;;22.62;35.19
36630;BME280;36256;42.154;23.002;2023-04-22T11:20:19;96729.28;;;22.54;32.31
36630;BME280;36256;42.154;23.002;2023-04-22T11:22:49;96719.78;;;22.33;36.06
36630;BME280;36256;42.154;23.002;2023-04-22T11:25:16;96728.72;;;21.98;34.84
36630;BME280;36256;42.154;23.002;2023-04-22T11:27:43;96734.75;;;21.75;36.73
36630;BME280;36256;42.154;23.002;2023-04-22T11:30:20;96745.41;;;21.56;36.35
36630;BME280;36256;42.154;23.002;2023-04-22T11:32:51;96747.28;;;21.35;36.44
36630;BME280;36256;42.154;23.002;2023-04-22T11:35:27;96755.31;;;21.18;37.24
36630;BME280;36256;42.154;23.002;2023-04-22T11:37:57;96754.47;;;20.99;38.65
36630;BME280;36256;42.154;23.002;2023-04-22T11:40:34;96752.53;;;20.64;38.71
36630;BME280;36256;42.154;23.002;2023-04-22T11:43:06;96763.41;;;20.42;38.99
36630;BME280;36256;42.154;23.002;2023-04-22T11:45:35;96768.78;;;20.15;39.50
36630;BME280;36256;42.154;23.002;2023-04-22T11:48:05;96771.19;;;19.76;40.03
36630;BME280;36256;42.154;23.002;2023-04-22T11:50:42;96766.09;;;19.58;40.77
36630;BME280;36256;42.154;23.002;2023-04-22T11:53:20;96768.28;;;19.41;42.06
36630;BME280;36256;42.154;23.002;2023-04-22T11:55:50;96763.16;;;19.34;42.01
36630;BME280;36256;42.154;23.002;2023-04-22T11:58:27;96765.00;;;19.26;42.19
36630;BME280;36256;42.154;23.002;2023-04-22T12:00:56;96761.41;;;19.14;42.73
36630;BME280;36256;42.154;23.002;2023-04-22T12:03:29;96733.59;;;18.96;42.60
36630;BME280;36256;42.154;23.002;2023-04-22T12:05:57;96752.44;;;19.05;42.75
36630;BME280;36256;42.154;23.002;2023-04-22T12:08:45;96751.34;;;19.08;42.83
36630;BME280;36256;42.154;23.002;2023-04-22T12:11:14;96745.66;;;19.08;41.40
36630;BME280;36256;42.154;23.002;2023-04-22T12:13:42;96739.69;;;19.17;41.93
36630;BME280;36256;42.154;23.002;2023-04-22T12:16:12;96740.69;;;19.25;42.23
36630;BME280;36256;42.154;23.002;2023-04-22T12:18:50;96742.47;;;19.28;41.88
36630;BME280;36256;42.154;23.002;2023-04-22T12:21:22;96737.56;;;19.34;42.25
36630;BME280;36256;42.154;23.002;2023-04-22T12:23:58;96731.28;;;19.46;42.15
36630;BME280;36256;42.154;23.002;2023-04-22T12:26:25;96730.34;;;19.68;41.38
36630;BME280;36256;42.154;23.002;2023-04-22T12:28:54;96737.41;;;19.91;39.64
36630;BME280;36256;42.154;23.002;2023-04-22T12:31:22;96717.13;;;20.00;40.42
36630;BME280;36256;42.154;23.002;2023-04-22T12:33:49;96733.56;;;20.18;42.31
36630;BME280;36256;42.154;23.002;2023-04-22T12:36:17;96738.00;;;20.14;42.72
36630;BME280;36256;42.154;23.002;2023-04-22T12:38:46;96735.69;;;20.12;41.98
36630;BME280;36256;42.154;23.002;2023-04-22T12:41:13;96731.22;;;20.17;42.03
36630;BME280;36256;42.154;23.002;2023-04-22T12:43:41;96735.09;;;20.19;42.70
36630;BME280;36256;42.154;23.002;2023-04-22T12:46:08;96736.34;;;20.29;41.93
36630;BME280;36256;42.154;23.002;2023-04-22T12:48:35;96727.81;;;20.24;39.44
36630;BME280;36256;42.154;23.002;2023-04-22T12:51:05;96733.06;;;20.14;40.10
36630;BME280;36256;42.154;23.002;2023-04-22T12:53:32;96735.56;;;19.94;40.43
36630;BME280;36256;42.154;23.002;2023-04-22T12:55:59;96712.41;;;19.79;40.50
36630;BME280;36256;42.154;23.002;2023-04-22T12:58:26;96711.63;;;19.78;40.00
36630;BME280;36256;42.154;23.002;2023-04-22T13:00:52;96713.47;;;19.76;40.62
36630;BME280;36256;42.154;23.002;2023-04-22T13:03:19;96715.03;;;19.77;40.27
36630;BME280;36256;42.154;23.002;2023-04-22T13:05:46;96712.97;;;19.72;41.26
36630;BME280;36256;42.154;23.002;2023-04-22T13:08:13;96719.34;;;19.83;40.38
36630;BME280;36256;42.154;23.002;2023-04-22T13:10:40;96711.34;;;19.82;41.59
36630;BME280;36256;42.154;23.002;2023-04-22T13:13:06;96711.03;;;19.85;40.89
36630;BME280;36256;42.154;23.002;2023-04-22T13:15:36;96717.13;;;20.00;40.98
36630;BME280;36256;42.154;23.002;2023-04-22T13:18:04;96707.72;;;20.11;41.65
36630;BME280;36256;42.154;23.002;2023-04-22T13:20:31;96707.09;;;20.23;42.20
36630;BME280;36256;42.154;23.002;2023-04-22T13:22:58;96705.06;;;20.18;40.21
36630;BME280;36256;42.154;23.002;2023-04-22T13:25:24;96698.03;;;20.19;40.22
36630;BME280;36256;42.154;23.002;2023-04-22T13:27:51;96688.47;;;20.22;39.32